Terminal Aerodrome Forecast
Issued by NWS

Home | Current Version | Previous Version | Text Only | Print | Product List | Glossary On
Versions: 1 2 3 4 5 6 7 8 9 10 11 12 13 14 15 16 17 18 19 20 21 22 23 24 25 26 27 28 29 30 31 32 33 34
000
FTUS41 KOKX 160209 AAB
TAFTEB
TAF AMD
KTEB 160209Z 1602/1706 27008KT P6SM SCT035 BKN070
     FM160400 27010KT P6SM FEW040 SCT120
     FM160700 27012KT P6SM SCT250
     FM161400 26014G22KT P6SM SCT040 SCT120
     FM161600 26016G25KT P6SM VCSH BKN040 BKN120
     FM162100 26012KT P6SM BKN040 BKN120
     FM170000 32008KT P6SM BKN050=

USA.gov is the U.S. government's official web portal to all federal, state and local government web resources and services.